sensor_id;sensor_type;location;lat;lon;timestamp;temperature;humidity
2062;DHT22;11070;51.336;12.340;2024-02-26T00:01:54;4.50;99.90
2062;DHT22;11070;51.336;12.340;2024-02-26T00:04:19;4.40;99.90
2062;DHT22;11070;51.336;12.340;2024-02-26T00:06:47;4.40;99.90
2062;DHT22;11070;51.336;12.340;2024-02-26T00:09:15;4.40;99.90
2062;DHT22;11070;51.336;12.340;2024-02-26T00:11:40;4.50;99.90
2062;DHT22;11070;51.336;12.340;2024-02-26T00:14:06;4.50;99.90
2062;DHT22;11070;51.336;12.340;2024-02-26T00:16:32;4.30;99.90
2062;DHT22;11070;51.336;12.340;2024-02-26T00:18:58;4.30;99.90
2062;DHT22;11070;51.336;12.340;2024-02-26T00:21:23;4.20;99.90
2062;DHT22;11070;51.336;12.340;2024-02-26T00:23:49;4.30;99.90
2062;DHT22;11070;51.336;12.340;2024-02-26T00:26:16;4.30;99.90
2062;DHT22;11070;51.336;12.340;2024-02-26T00:28:41;4.30;99.90
2062;DHT22;11070;51.336;12.340;2024-02-26T00:31:07;4.30;99.90
2062;DHT22;11070;51.336;12.340;2024-02-26T00:33:33;4.30;99.90
2062;DHT22;11070;51.336;12.340;2024-02-26T00:35:58;4.30;99.90
2062;DHT22;11070;51.336;12.340;2024-02-26T00:38:24;4.30;99.90
2062;DHT22;11070;51.336;12.340;2024-02-26T00:40:49;4.30;99.90
2062;DHT22;11070;51.336;12.340;2024-02-26T00:43:15;4.40;99.90
2062;DHT22;11070;51.336;12.340;2024-02-26T00:45:41;4.40;99.90
2062;DHT22;11070;51.336;12.340;2024-02-26T00:48:06;4.40;99.90
2062;DHT22;11070;51.336;12.340;2024-02-26T00:50:35;4.40;99.90
2062;DHT22;11070;51.336;12.340;2024-02-26T00:53:02;4.30;99.90
2062;DHT22;11070;51.336;12.340;2024-02-26T00:55:27;4.30;99.90
2062;DHT22;11070;51.336;12.340;2024-02-26T00:57:53;4.30;99.90
2062;DHT22;11070;51.336;12.340;2024-02-26T01:00:19;4.30;99.90
2062;DHT22;11070;51.336;12.340;2024-02-26T01:02:45;4.40;99.90
2062;DHT22;11070;51.336;12.340;2024-02-26T01:05:15;4.40;99.90
2062;DHT22;11070;51.336;12.340;2024-02-26T01:07:42;4.30;99.90
2062;DHT22;11070;51.336;12.340;2024-02-26T01:10:08;4.30;99.90
2062;DHT22;11070;51.336;12.340;2024-02-26T01:12:34;4.30;99.90
2062;DHT22;11070;51.336;12.340;2024-02-26T01:15:03;4.30;99.90
2062;DHT22;11070;51.336;12.340;2024-02-26T01:17:29;4.20;99.90
2062;DHT22;11070;51.336;12.340;2024-02-26T01:19:55;4.30;99.90
2062;DHT22;11070;51.336;12.340;2024-02-26T01:22:21;4.30;99.90
2062;DHT22;11070;51.336;12.340;2024-02-26T01:24:46;4.40;99.90
2062;DHT22;11070;51.336;12.340;2024-02-26T01:27:12;4.30;99.90
2062;DHT22;11070;51.336;12.340;2024-02-26T01:29:39;4.30;99.90
2062;DHT22;11070;51.336;12.340;2024-02-26T01:32:06;4.20;99.90
2062;DHT22;11070;51.336;12.340;2024-02-26T01:34:31;4.10;99.90
2062;DHT22;11070;51.336;12.340;2024-02-26T01:36:57;4.20;99.90
2062;DHT22;11070;51.336;12.340;2024-02-26T01:39:23;4.20;99.90
2062;DHT22;11070;51.336;12.340;2024-02-26T01:41:48;4.10;99.90
2062;DHT22;11070;51.336;12.340;2024-02-26T01:44:14;4.10;99.90
2062;DHT22;11070;51.336;12.340;2024-02-26T01:46:40;4.00;99.90
2062;DHT22;11070;51.336;12.340;2024-02-26T01:49:06;3.90;99.90
2062;DHT22;11070;51.336;12.340;2024-02-26T01:51:35;3.80;99.90
2062;DHT22;11070;51.336;12.340;2024-02-26T01:54:02;3.80;99.90
2062;DHT22;11070;51.336;12.340;2024-02-26T01:56:29;3.80;99.90
2062;DHT22;11070;51.336;12.340;2024-02-26T01:58:57;3.90;99.90
2062;DHT22;11070;51.336;12.340;2024-02-26T02:01:29;3.90;99.90
2062;DHT22;11070;51.336;12.340;2024-02-26T02:03:57;3.90;99.90
2062;DHT22;11070;51.336;12.340;2024-02-26T02:06:23;4.00;99.90
2062;DHT22;11070;51.336;12.340;2024-02-26T02:08:49;4.00;99.90
2062;DHT22;11070;51.336;12.340;2024-02-26T02:11:15;4.00;99.90
2062;DHT22;11070;51.336;12.340;2024-02-26T02:13:41;4.00;99.90
2062;DHT22;11070;51.336;12.340;2024-02-26T02:16:07;3.90;99.90
2062;DHT22;11070;51.336;12.340;2024-02-26T02:18:33;3.90;99.90
2062;DHT22;11070;51.336;12.340;2024-02-26T02:21:02;3.90;99.90
2062;DHT22;11070;51.336;12.340;2024-02-26T02:23:29;3.80;99.90
2062;DHT22;11070;51.336;12.340;2024-02-26T02:25:56;3.80;99.90
2062;DHT22;11070;51.336;12.340;2024-02-26T02:28:23;3.90;99.90
2062;DHT22;11070;51.336;12.340;2024-02-26T02:30:51;3.90;99.90
2062;DHT22;11070;51.336;12.340;2024-02-26T02:33:17;3.90;99.90
2062;DHT22;11070;51.336;12.340;2024-02-26T02:35:43;3.90;99.90
2062;DHT22;11070;51.336;12.340;2024-02-26T02:38:08;3.90;99.90
2062;DHT22;11070;51.336;12.340;2024-02-26T02:40:34;3.90;99.90
2062;DHT22;11070;51.336;12.340;2024-02-26T02:43:00;3.80;99.90
2062;DHT22;11070;51.336;12.340;2024-02-26T02:45:27;3.80;99.90
2062;DHT22;11070;51.336;12.340;2024-02-26T02:47:53;3.80;99.90
2062;DHT22;11070;51.336;12.340;2024-02-26T02:50:19;3.80;99.90
2062;DHT22;11070;51.336;12.340;2024-02-26T02:52:44;3.80;99.90
2062;DHT22;11070;51.336;12.340;2024-02-26T02:55:10;3.70;99.90
2062;DHT22;11070;51.336;12.340;2024-02-26T02:57:36;3.70;99.90
2062;DHT22;11070;51.336;12.340;2024-02-26T03:00:09;3.70;99.90
2062;DHT22;11070;51.336;12.340;2024-02-26T03:02:35;3.70;99.90
2062;DHT22;11070;51.336;12.340;2024-02-26T03:05:02;3.70;99.90
2062;DHT22;11070;51.336;12.340;2024-02-26T03:07:28;3.70;99.90
2062;DHT22;11070;51.336;12.340;2024-02-26T03:09:54;3.70;99.90
2062;DHT22;11070;51.336;12.340;2024-02-26T03:12:19;3.70;99.90
2062;DHT22;11070;51.336;12.340;2024-02-26T03:14:45;3.60;99.90
2062;DHT22;11070;51.336;12.340;2024-02-26T03:17:11;3.50;99.90
2062;DHT22;11070;51.336;12.340;2024-02-26T03:19:36;3.50;99.90
2062;DHT22;11070;51.336;12.340;2024-02-26T03:22:02;3.50;99.90
2062;DHT22;11070;51.336;12.340;2024-02-26T03:24:28;3.50;99.90
2062;DHT22;11070;51.336;12.340;2024-02-26T03:26:53;3.50;99.90
2062;DHT22;11070;51.336;12.340;2024-02-26T03:29:19;3.50;99.90
2062;DHT22;11070;51.336;12.340;2024-02-26T03:31:45;3.40;99.90
2062;DHT22;11070;51.336;12.340;2024-02-26T03:34:11;3.30;99.90
2062;DHT22;11070;51.336;12.340;2024-02-26T03:36:39;3.30;99.90
2062;DHT22;11070;51.336;12.340;2024-02-26T03:39:04;3.30;99.90
2062;DHT22;11070;51.336;12.340;2024-02-26T03:41:33;3.20;99.90
2062;DHT22;11070;51.336;12.340;2024-02-26T03:43:59;3.20;99.90
2062;DHT22;11070;51.336;12.340;2024-02-26T03:46:25;3.10;99.90
2062;DHT22;11070;51.336;12.340;2024-02-26T03:48:50;3.10;99.90
2062;DHT22;11070;51.336;12.340;2024-02-26T03:51:16;3.00;99.90
2062;DHT22;11070;51.336;12.340;2024-02-26T03:53:42;3.00;99.90
2062;DHT22;11070;51.336;12.340;2024-02-26T03:56:08;2.90;99.90
2062;DHT22;11070;51.336;12.340;2024-02-26T03:58:33;2.90;99.90
2062;DHT22;11070;51.336;12.340;2024-02-26T04:01:00;2.90;99.90
2062;DHT22;11070;51.336;12.340;2024-02-26T04:03:26;2.90;99.90
2062;DHT22;11070;51.336;12.340;2024-02-26T04:05:51;2.90;99.90
2062;DHT22;11070;51.336;12.340;2024-02-26T04:08:17;2.90;99.90
2062;DHT22;11070;51.336;12.340;2024-02-26T04:10:42;2.80;99.90
2062;DHT22;11070;51.336;12.340;2024-02-26T04:13:08;2.80;99.90
2062;DHT22;11070;51.336;12.340;2024-02-26T04:15:34;2.80;99.90
2062;DHT22;11070;51.336;12.340;2024-02-26T04:18:00;2.80;99.90
2062;DHT22;11070;51.336;12.340;2024-02-26T04:20:26;2.80;99.90
2062;DHT22;11070;51.336;12.340;2024-02-26T04:22:51;2.80;99.90
2062;DHT22;11070;51.336;12.340;2024-02-26T04:25:18;2.80;99.90
2062;DHT22;11070;51.336;12.340;2024-02-26T04:27:44;2.80;99.90
2062;DHT22;11070;51.336;12.340;2024-02-26T04:30:10;2.80;99.90
2062;DHT22;11070;51.336;12.340;2024-02-26T04:32:35;2.80;99.90
2062;DHT22;11070;51.336;12.340;2024-02-26T04:35:02;2.80;99.90
2062;DHT22;11070;51.336;12.340;2024-02-26T04:37:28;2.80;99.90
2062;DHT22;11070;51.336;12.340;2024-02-26T04:40:00;2.80;99.90
2062;DHT22;11070;51.336;12.340;2024-02-26T04:42:27;2.90;99.90
2062;DHT22;11070;51.336;12.340;2024-02-26T04:44:53;2.90;99.90
2062;DHT22;11070;51.336;12.340;2024-02-26T04:47:19;2.90;99.90
2062;DHT22;11070;51.336;12.340;2024-02-26T04:49:45;3.00;99.90
2062;DHT22;11070;51.336;12.340;2024-02-26T04:52:11;3.00;99.90
2062;DHT22;11070;51.336;12.340;2024-02-26T04:54:37;3.00;99.90
2062;DHT22;11070;51.336;12.340;2024-02-26T04:57:02;3.00;99.90
2062;DHT22;11070;51.336;12.340;2024-02-26T04:59:28;3.00;99.90
2062;DHT22;11070;51.336;12.340;2024-02-26T05:01:54;3.00;99.90
2062;DHT22;11070;51.336;12.340;2024-02-26T05:04:19;3.00;99.90
2062;DHT22;11070;51.336;12.340;2024-02-26T05:06:45;3.10;99.90
2062;DHT22;11070;51.336;12.340;2024-02-26T05:09:11;3.00;99.90
2062;DHT22;11070;51.336;12.340;2024-02-26T05:11:36;3.00;99.90
2062;DHT22;11070;51.336;12.340;2024-02-26T05:14:03;3.00;99.90
2062;DHT22;11070;51.336;12.340;2024-02-26T05:16:28;3.00;99.90
2062;DHT22;11070;51.336;12.340;2024-02-26T05:18:56;3.00;99.90
2062;DHT22;11070;51.336;12.340;2024-02-26T05:21:22;3.00;99.90
2062;DHT22;11070;51.336;12.340;2024-02-26T05:23:47;3.00;99.90
2062;DHT22;11070;51.336;12.340;2024-02-26T05:26:22;2.90;99.90
2062;DHT22;11070;51.336;12.340;2024-02-26T05:28:48;2.90;99.90
2062;DHT22;11070;51.336;12.340;2024-02-26T05:31:15;2.90;99.90
2062;DHT22;11070;51.336;12.340;2024-02-26T05:33:40;2.80;99.90
2062;DHT22;11070;51.336;12.340;2024-02-26T05:36:06;2.80;99.90
2062;DHT22;11070;51.336;12.340;2024-02-26T05:38:32;2.80;99.90
2062;DHT22;11070;51.336;12.340;2024-02-26T05:40:58;2.80;99.90
2062;DHT22;11070;51.336;12.340;2024-02-26T05:43:27;2.80;99.90
2062;DHT22;11070;51.336;12.340;2024-02-26T05:45:53;2.80;99.90
2062;DHT22;11070;51.336;12.340;2024-02-26T05:48:19;2.80;99.90
2062;DHT22;11070;51.336;12.340;2024-02-26T05:50:46;2.90;99.90
2062;DHT22;11070;51.336;12.340;2024-02-26T05:53:12;2.80;99.90
2062;DHT22;11070;51.336;12.340;2024-02-26T05:55:38;2.80;99.90
2062;DHT22;11070;51.336;12.340;2024-02-26T05:58:04;2.90;99.90
2062;DHT22;11070;51.336;12.340;2024-02-26T06:00:30;3.00;99.90
2062;DHT22;11070;51.336;12.340;2024-02-26T06:02:56;3.00;99.90
2062;DHT22;11070;51.336;12.340;2024-02-26T06:05:21;3.00;99.90
2062;DHT22;11070;51.336;12.340;2024-02-26T06:07:47;3.10;99.90
2062;DHT22;11070;51.336;12.340;2024-02-26T06:10:13;3.10;99.90
2062;DHT22;11070;51.336;12.340;2024-02-26T06:12:41;3.00;99.90
2062;DHT22;11070;51.336;12.340;2024-02-26T06:15:07;3.00;99.90
2062;DHT22;11070;51.336;12.340;2024-02-26T06:17:33;3.10;99.90
2062;DHT22;11070;51.336;12.340;2024-02-26T06:19:59;3.20;99.90
2062;DHT22;11070;51.336;12.340;2024-02-26T06:22:25;3.30;99.90
2062;DHT22;11070;51.336;12.340;2024-02-26T06:24:51;3.50;99.90
2062;DHT22;11070;51.336;12.340;2024-02-26T06:27:17;3.60;99.90
2062;DHT22;11070;51.336;12.340;2024-02-26T06:29:43;3.80;99.90
2062;DHT22;11070;51.336;12.340;2024-02-26T06:32:08;3.90;99.90
2062;DHT22;11070;51.336;12.340;2024-02-26T06:34:34;4.00;99.90
2062;DHT22;11070;51.336;12.340;2024-02-26T06:37:00;4.10;99.90
2062;DHT22;11070;51.336;12.340;2024-02-26T06:39:26;4.10;99.90
2062;DHT22;11070;51.336;12.340;2024-02-26T06:41:51;4.10;99.90
2062;DHT22;11070;51.336;12.340;2024-02-26T06:44:23;4.40;99.90
2062;DHT22;11070;51.336;12.340;2024-02-26T06:46:50;4.70;99.90
2062;DHT22;11070;51.336;12.340;2024-02-26T06:49:15;4.80;99.90
2062;DHT22;11070;51.336;12.340;2024-02-26T06:51:41;4.90;99.90
2062;DHT22;11070;51.336;12.340;2024-02-26T06:54:07;5.10;99.90
2062;DHT22;11070;51.336;12.340;2024-02-26T06:56:32;5.40;99.90
2062;DHT22;11070;51.336;12.340;2024-02-26T06:58:58;5.60;99.90
2062;DHT22;11070;51.336;12.340;2024-02-26T07:01:24;5.90;99.90
2062;DHT22;11070;51.336;12.340;2024-02-26T07:03:49;6.50;99.90
2062;DHT22;11070;51.336;12.340;2024-02-26T07:06:15;7.50;99.90
2062;DHT22;11070;51.336;12.340;2024-02-26T07:08:41;8.20;99.90
2062;DHT22;11070;51.336;12.340;2024-02-26T07:11:10;8.40;99.90
2062;DHT22;11070;51.336;12.340;2024-02-26T07:13:36;8.70;99.90
2062;DHT22;11070;51.336;12.340;2024-02-26T07:16:02;8.70;99.90
2062;DHT22;11070;51.336;12.340;2024-02-26T07:18:28;8.60;99.90
2062;DHT22;11070;51.336;12.340;2024-02-26T07:20:53;8.50;99.90
2062;DHT22;11070;51.336;12.340;2024-02-26T07:23:19;8.60;99.90
2062;DHT22;11070;51.336;12.340;2024-02-26T07:25:44;9.20;99.90
2062;DHT22;11070;51.336;12.340;2024-02-26T07:28:11;9.90;99.90
2062;DHT22;11070;51.336;12.340;2024-02-26T07:30:37;10.80;99.90
2062;DHT22;11070;51.336;12.340;2024-02-26T07:33:03;11.60;99.90
2062;DHT22;11070;51.336;12.340;2024-02-26T07:35:28;12.20;99.90
2062;DHT22;11070;51.336;12.340;2024-02-26T07:37:54;12.70;99.90
2062;DHT22;11070;51.336;12.340;2024-02-26T07:40:20;12.90;99.90
2062;DHT22;11070;51.336;12.340;2024-02-26T07:42:46;13.00;98.60
2062;DHT22;11070;51.336;12.340;2024-02-26T07:45:11;13.00;97.70
2062;DHT22;11070;51.336;12.340;2024-02-26T07:47:37;12.30;99.50
2062;DHT22;11070;51.336;12.340;2024-02-26T07:50:07;11.80;99.90
2062;DHT22;11070;51.336;12.340;2024-02-26T07:52:33;11.80;99.90
2062;DHT22;11070;51.336;12.340;2024-02-26T07:54:59;12.00;99.90
2062;DHT22;11070;51.336;12.340;2024-02-26T07:57:24;11.90;99.90
2062;DHT22;11070;51.336;12.340;2024-02-26T07:59:50;12.10;99.90
2062;DHT22;11070;51.336;12.340;2024-02-26T08:02:16;12.20;99.90
2062;DHT22;11070;51.336;12.340;2024-02-26T08:04:42;12.80;96.70
2062;DHT22;11070;51.336;12.340;2024-02-26T08:07:07;13.00;96.70
2062;DHT22;11070;51.336;12.340;2024-02-26T08:09:33;13.20;91.80
2062;DHT22;11070;51.336;12.340;2024-02-26T08:11:59;12.90;93.20
2062;DHT22;11070;51.336;12.340;2024-02-26T08:14:24;13.00;94.70
2062;DHT22;11070;51.336;12.340;2024-02-26T08:16:50;12.80;93.50
2062;DHT22;11070;51.336;12.340;2024-02-26T08:19:16;12.10;98.70
2062;DHT22;11070;51.336;12.340;2024-02-26T08:21:43;11.80;99.90
2062;DHT22;11070;51.336;12.340;2024-02-26T08:24:08;12.20;99.90
2062;DHT22;11070;51.336;12.340;2024-02-26T08:26:34;12.00;99.90
2062;DHT22;11070;51.336;12.340;2024-02-26T08:28:59;11.80;99.90
2062;DHT22;11070;51.336;12.340;2024-02-26T08:31:25;12.00;99.90
2062;DHT22;11070;51.336;12.340;2024-02-26T08:33:51;12.40;99.90
2062;DHT22;11070;51.336;12.340;2024-02-26T08:36:16;12.50;98.60
2062;DHT22;11070;51.336;12.340;2024-02-26T08:38:42;13.10;94.20
2062;DHT22;11070;51.336;12.340;2024-02-26T08:41:08;14.00;92.70
2062;DHT22;11070;51.336;12.340;2024-02-26T08:43:33;14.70;84.90
2062;DHT22;11070;51.336;12.340;2024-02-26T08:45:59;15.20;77.30
2062;DHT22;11070;51.336;12.340;2024-02-26T08:48:25;15.60;72.60
2062;DHT22;11070;51.336;12.340;2024-02-26T08:50:51;16.10;69.10
2062;DHT22;11070;51.336;12.340;2024-02-26T08:53:16;16.60;66.30
2062;DHT22;11070;51.336;12.340;2024-02-26T08:55:42;17.10;60.20
2062;DHT22;11070;51.336;12.340;2024-02-26T08:58:08;17.20;60.80
2062;DHT22;11070;51.336;12.340;2024-02-26T09:00:33;18.00;58.00
2062;DHT22;11070;51.336;12.340;2024-02-26T09:02:59;18.60;54.40
2062;DHT22;11070;51.336;12.340;2024-02-26T09:05:25;19.10;53.00
2062;DHT22;11070;51.336;12.340;2024-02-26T09:07:50;19.90;50.80
2062;DHT22;11070;51.336;12.340;2024-02-26T09:10:17;20.20;49.60
2062;DHT22;11070;51.336;12.340;2024-02-26T09:12:43;19.90;48.50
2062;DHT22;11070;51.336;12.340;2024-02-26T09:15:09;19.50;48.70
2062;DHT22;11070;51.336;12.340;2024-02-26T09:17:35;19.30;49.60
2062;DHT22;11070;51.336;12.340;2024-02-26T09:20:01;19.20;49.30
2062;DHT22;11070;51.336;12.340;2024-02-26T09:22:27;19.00;49.50
2062;DHT22;11070;51.336;12.340;2024-02-26T09:24:52;18.90;50.00
2062;DHT22;11070;51.336;12.340;2024-02-26T09:27:19;19.00;49.90
2062;DHT22;11070;51.336;12.340;2024-02-26T09:29:44;19.70;49.40
2062;DHT22;11070;51.336;12.340;2024-02-26T09:32:10;21.40;45.90
2062;DHT22;11070;51.336;12.340;2024-02-26T09:34:36;21.60;44.40
2062;DHT22;11070;51.336;12.340;2024-02-26T09:37:02;21.00;44.50
2062;DHT22;11070;51.336;12.340;2024-02-26T09:39:28;19.60;46.20
2062;DHT22;11070;51.336;12.340;2024-02-26T09:41:53;19.00;47.60
2062;DHT22;11070;51.336;12.340;2024-02-26T09:44:20;18.20;48.70
2062;DHT22;11070;51.336;12.340;2024-02-26T09:46:47;17.60;50.10
2062;DHT22;11070;51.336;12.340;2024-02-26T09:49:15;16.90;51.70
2062;DHT22;11070;51.336;12.340;2024-02-26T09:51:42;16.70;53.60
2062;DHT22;11070;51.336;12.340;2024-02-26T09:54:09;16.70;54.10
2062;DHT22;11070;51.336;12.340;2024-02-26T09:56:38;16.80;54.30
2062;DHT22;11070;51.336;12.340;2024-02-26T09:59:06;17.10;54.00
2062;DHT22;11070;51.336;12.340;2024-02-26T10:01:36;16.70;54.20
2062;DHT22;11070;51.336;12.340;2024-02-26T10:04:03;16.30;54.80
2062;DHT22;11070;51.336;12.340;2024-02-26T10:06:29;16.20;55.10
2062;DHT22;11070;51.336;12.340;2024-02-26T10:08:56;15.80;55.90
2062;DHT22;11070;51.336;12.340;2024-02-26T10:11:24;15.70;57.30
2062;DHT22;11070;51.336;12.340;2024-02-26T10:13:50;15.80;57.50
2062;DHT22;11070;51.336;12.340;2024-02-26T10:16:19;15.70;57.50
2062;DHT22;11070;51.336;12.340;2024-02-26T10:18:54;15.50;57.50
2062;DHT22;11070;51.336;12.340;2024-02-26T10:21:20;15.50;58.10
2062;DHT22;11070;51.336;12.340;2024-02-26T10:23:48;15.50;57.50
2062;DHT22;11070;51.336;12.340;2024-02-26T10:26:15;15.40;58.30
2062;DHT22;11070;51.336;12.340;2024-02-26T10:28:44;15.50;57.40
2062;DHT22;11070;51.336;12.340;2024-02-26T10:31:11;15.60;57.60
2062;DHT22;11070;51.336;12.340;2024-02-26T10:33:37;15.40;57.90
2062;DHT22;11070;51.336;12.340;2024-02-26T10:36:07;15.20;58.90
2062;DHT22;11070;51.336;12.340;2024-02-26T10:38:36;14.80;59.80
2062;DHT22;11070;51.336;12.340;2024-02-26T10:41:06;14.60;60.90
2062;DHT22;11070;51.336;12.340;2024-02-26T10:43:32;14.40;63.80
2062;DHT22;11070;51.336;12.340;2024-02-26T10:45:58;14.00;63.10
2062;DHT22;11070;51.336;12.340;2024-02-26T10:48:23;13.50;66.00
2062;DHT22;11070;51.336;12.340;2024-02-26T10:50:49;13.20;72.50
2062;DHT22;11070;51.336;12.340;2024-02-26T10:53:29;13.00;78.20
2062;DHT22;11070;51.336;12.340;2024-02-26T10:55:58;13.10;82.50
2062;DHT22;11070;51.336;12.340;2024-02-26T10:58:29;13.20;88.20
2062;DHT22;11070;51.336;12.340;2024-02-26T11:00:57;13.50;88.30
2062;DHT22;11070;51.336;12.340;2024-02-26T11:03:24;13.80;89.80
2062;DHT22;11070;51.336;12.340;2024-02-26T11:05:50;14.00;85.00
2062;DHT22;11070;51.336;12.340;2024-02-26T11:08:20;14.00;86.40
2062;DHT22;11070;51.336;12.340;2024-02-26T11:10:53;14.00;86.70
2062;DHT22;11070;51.336;12.340;2024-02-26T11:13:19;13.90;85.40
2062;DHT22;11070;51.336;12.340;2024-02-26T11:15:47;13.80;87.00
2062;DHT22;11070;51.336;12.340;2024-02-26T11:18:15;13.70;88.40
2062;DHT22;11070;51.336;12.340;2024-02-26T11:20:41;13.70;88.20
2062;DHT22;11070;51.336;12.340;2024-02-26T11:23:08;13.70;90.40
2062;DHT22;11070;51.336;12.340;2024-02-26T11:25:35;13.70;89.80
2062;DHT22;11070;51.336;12.340;2024-02-26T11:28:05;13.80;91.30
2062;DHT22;11070;51.336;12.340;2024-02-26T11:30:34;14.00;91.60
2062;DHT22;11070;51.336;12.340;2024-02-26T11:33:01;14.10;90.50
2062;DHT22;11070;51.336;12.340;2024-02-26T11:35:28;14.20;90.10
2062;DHT22;11070;51.336;12.340;2024-02-26T11:37:55;14.20;90.30
2062;DHT22;11070;51.336;12.340;2024-02-26T11:40:23;14.30;89.70
2062;DHT22;11070;51.336;12.340;2024-02-26T11:42:50;14.30;87.70
2062;DHT22;11070;51.336;12.340;2024-02-26T11:48:13;13.80;90.60
2062;DHT22;11070;51.336;12.340;2024-02-26T11:50:41;13.80;90.60
2062;DHT22;11070;51.336;12.340;2024-02-26T11:53:26;13.80;91.00
2062;DHT22;11070;51.336;12.340;2024-02-26T11:56:19;13.90;92.30
2062;DHT22;11070;51.336;12.340;2024-02-26T11:58:46;13.90;92.50
2062;DHT22;11070;51.336;12.340;2024-02-26T12:01:40;13.80;92.80
2062;DHT22;11070;51.336;12.340;2024-02-26T12:04:14;13.90;93.40
2062;DHT22;11070;51.336;12.340;2024-02-26T12:09:42;13.70;95.80
2062;DHT22;11070;51.336;12.340;2024-02-26T12:12:09;13.60;97.50
2062;DHT22;11070;51.336;12.340;2024-02-26T12:14:40;13.70;98.20
2062;DHT22;11070;51.336;12.340;2024-02-26T12:17:07;13.70;97.60
2062;DHT22;11070;51.336;12.340;2024-02-26T12:19:44;13.60;98.80
2062;DHT22;11070;51.336;12.340;2024-02-26T12:22:13;13.60;99.90
2062;DHT22;11070;51.336;12.340;2024-02-26T12:24:39;13.60;99.90
2062;DHT22;11070;51.336;12.340;2024-02-26T12:27:05;13.70;99.90
2062;DHT22;11070;51.336;12.340;2024-02-26T12:29:31;13.70;99.90
2062;DHT22;11070;51.336;12.340;2024-02-26T12:31:57;13.70;99.90
2062;DHT22;11070;51.336;12.340;2024-02-26T12:34:23;13.80;99.30
2062;DHT22;11070;51.336;12.340;2024-02-26T12:36:49;13.60;99.90
2062;DHT22;11070;51.336;12.340;2024-02-26T12:39:15;13.50;99.90
2062;DHT22;11070;51.336;12.340;2024-02-26T12:41:41;13.40;99.90
2062;DHT22;11070;51.336;12.340;2024-02-26T12:44:08;13.60;99.90
2062;DHT22;11070;51.336;12.340;2024-02-26T12:46:34;13.80;99.90
2062;DHT22;11070;51.336;12.340;2024-02-26T12:48:59;13.80;99.90
2062;DHT22;11070;51.336;12.340;2024-02-26T12:51:26;13.60;99.90
2062;DHT22;11070;51.336;12.340;2024-02-26T12:53:53;13.50;99.90
2062;DHT22;11070;51.336;12.340;2024-02-26T12:56:19;13.60;99.90
2062;DHT22;11070;51.336;12.340;2024-02-26T12:58:46;13.70;99.90
2062;DHT22;11070;51.336;12.340;2024-02-26T13:01:14;13.70;99.90
2062;DHT22;11070;51.336;12.340;2024-02-26T13:03:42;13.80;99.90
2062;DHT22;11070;51.336;12.340;2024-02-26T13:06:08;13.90;99.90
2062;DHT22;11070;51.336;12.340;2024-02-26T13:08:34;14.20;99.20
2062;DHT22;11070;51.336;12.340;2024-02-26T13:11:00;14.40;96.80
2062;DHT22;11070;51.336;12.340;2024-02-26T13:13:26;14.50;94.50
2062;DHT22;11070;51.336;12.340;2024-02-26T13:16:04;14.50;94.60
2062;DHT22;11070;51.336;12.340;2024-02-26T13:18:31;14.30;94.30
2062;DHT22;11070;51.336;12.340;2024-02-26T13:21:26;14.20;96.90
2062;DHT22;11070;51.336;12.340;2024-02-26T13:23:53;14.10;96.80
2062;DHT22;11070;51.336;12.340;2024-02-26T13:26:22;14.10;97.70
2062;DHT22;11070;51.336;12.340;2024-02-26T13:29:02;14.00;98.30
2062;DHT22;11070;51.336;12.340;2024-02-26T13:31:29;13.90;99.20
2062;DHT22;11070;51.336;12.340;2024-02-26T13:33:55;13.80;99.90
2062;DHT22;11070;51.336;12.340;2024-02-26T13:36:24;13.70;99.90
2062;DHT22;11070;51.336;12.340;2024-02-26T13:38:54;13.60;99.90
2062;DHT22;11070;51.336;12.340;2024-02-26T13:41:23;13.50;99.90
2062;DHT22;11070;51.336;12.340;2024-02-26T13:43:50;13.60;99.90
2062;DHT22;11070;51.336;12.340;2024-02-26T13:46:16;13.90;99.90
2062;DHT22;11070;51.336;12.340;2024-02-26T13:48:42;13.90;99.90
2062;DHT22;11070;51.336;12.340;2024-02-26T13:51:09;14.00;98.70
2062;DHT22;11070;51.336;12.340;2024-02-26T13:53:35;14.20;97.10
2062;DHT22;11070;51.336;12.340;2024-02-26T13:56:00;14.30;95.90
2062;DHT22;11070;51.336;12.340;2024-02-26T13:58:27;14.30;96.60
2062;DHT22;11070;51.336;12.340;2024-02-26T14:00:53;14.60;93.90
2062;DHT22;11070;51.336;12.340;2024-02-26T14:03:20;14.90;92.90
2062;DHT22;11070;51.336;12.340;2024-02-26T14:05:46;15.00;90.50
2062;DHT22;11070;51.336;12.340;2024-02-26T14:08:12;15.00;89.90
2062;DHT22;11070;51.336;12.340;2024-02-26T14:10:38;14.80;90.00
2062;DHT22;11070;51.336;12.340;2024-02-26T14:13:04;14.70;90.40
2062;DHT22;11070;51.336;12.340;2024-02-26T14:15:30;14.70;91.50
2062;DHT22;11070;51.336;12.340;2024-02-26T14:17:56;14.80;90.90
2062;DHT22;11070;51.336;12.340;2024-02-26T14:20:25;14.90;90.10
2062;DHT22;11070;51.336;12.340;2024-02-26T14:22:51;14.50;90.50
2062;DHT22;11070;51.336;12.340;2024-02-26T14:25:21;14.40;91.90
2062;DHT22;11070;51.336;12.340;2024-02-26T14:27:47;14.30;92.50
2062;DHT22;11070;51.336;12.340;2024-02-26T14:30:13;14.00;92.80
2062;DHT22;11070;51.336;12.340;2024-02-26T14:32:39;13.80;93.50
2062;DHT22;11070;51.336;12.340;2024-02-26T14:35:09;13.80;95.50
2062;DHT22;11070;51.336;12.340;2024-02-26T14:37:35;13.70;95.70
2062;DHT22;11070;51.336;12.340;2024-02-26T14:40:01;13.70;96.20
2062;DHT22;11070;51.336;12.340;2024-02-26T14:42:30;13.80;95.80
2062;DHT22;11070;51.336;12.340;2024-02-26T14:44:56;13.70;95.40
2062;DHT22;11070;51.336;12.340;2024-02-26T14:47:22;13.60;96.40
2062;DHT22;11070;51.336;12.340;2024-02-26T14:49:48;13.40;96.70
2062;DHT22;11070;51.336;12.340;2024-02-26T14:52:14;13.30;99.10
2062;DHT22;11070;51.336;12.340;2024-02-26T14:54:40;13.30;99.90
2062;DHT22;11070;51.336;12.340;2024-02-26T14:57:06;13.30;99.90
2062;DHT22;11070;51.336;12.340;2024-02-26T14:59:33;13.30;99.90
2062;DHT22;11070;51.336;12.340;2024-02-26T15:01:59;13.30;99.90
2062;DHT22;11070;51.336;12.340;2024-02-26T15:04:27;13.10;99.90
2062;DHT22;11070;51.336;12.340;2024-02-26T15:06:53;12.90;99.90
2062;DHT22;11070;51.336;12.340;2024-02-26T15:09:19;12.90;99.90
2062;DHT22;11070;51.336;12.340;2024-02-26T15:11:44;12.90;99.90
2062;DHT22;11070;51.336;12.340;2024-02-26T15:14:10;12.80;99.90
2062;DHT22;11070;51.336;12.340;2024-02-26T15:16:36;12.60;99.90
2062;DHT22;11070;51.336;12.340;2024-02-26T15:19:02;12.40;99.90
2062;DHT22;11070;51.336;12.340;2024-02-26T15:21:32;12.30;99.90
2062;DHT22;11070;51.336;12.340;2024-02-26T15:23:58;12.30;99.90
2062;DHT22;11070;51.336;12.340;2024-02-26T15:26:27;12.20;99.90
2062;DHT22;11070;51.336;12.340;2024-02-26T15:28:53;12.10;99.90
2062;DHT22;11070;51.336;12.340;2024-02-26T15:31:21;12.00;99.90
2062;DHT22;11070;51.336;12.340;2024-02-26T15:33:47;11.90;99.90
2062;DHT22;11070;51.336;12.340;2024-02-26T15:36:12;11.90;99.90
2062;DHT22;11070;51.336;12.340;2024-02-26T15:38:38;11.90;99.90
2062;DHT22;11070;51.336;12.340;2024-02-26T15:41:14;11.90;99.90